sensor_id;sensor_type;location;lat;lon;timestamp;P1;durP1;ratioP1;P2;durP2;ratioP2
23232;SDS011;11785;49.500;8.288;2022-11-10T00:00:18;12.38;;;3.17;;
23232;SDS011;11785;49.500;8.288;2022-11-10T00:02:44;10.77;;;2.97;;
23232;SDS011;11785;49.500;8.288;2022-11-10T00:05:11;8.93;;;2.97;;
23232;SDS011;11785;49.500;8.288;2022-11-10T00:07:38;7.95;;;2.90;;
23232;SDS011;11785;49.500;8.288;2022-11-10T00:10:04;13.32;;;2.40;;
23232;SDS011;11785;49.500;8.288;2022-11-10T00:12:30;14.27;;;3.05;;
23232;SDS011;11785;49.500;8.288;2022-11-10T00:14:57;10.38;;;3.38;;
23232;SDS011;11785;49.500;8.288;2022-11-10T00:17:41;4.47;;;2.55;;
23232;SDS011;11785;49.500;8.288;2022-11-10T00:20:07;6.28;;;2.67;;
23232;SDS011;11785;49.500;8.288;2022-11-10T00:22:33;14.55;;;2.60;;
23232;SDS011;11785;49.500;8.288;2022-11-10T00:25:00;9.48;;;2.65;;
23232;SDS011;11785;49.500;8.288;2022-11-10T00:27:26;8.77;;;2.45;;
23232;SDS011;11785;49.500;8.288;2022-11-10T00:29:52;6.70;;;2.40;;
23232;SDS011;11785;49.500;8.288;2022-11-10T00:32:17;8.82;;;2.50;;
23232;SDS011;11785;49.500;8.288;2022-11-10T00:34:43;9.52;;;2.88;;
23232;SDS011;11785;49.500;8.288;2022-11-10T00:37:09;9.18;;;1.85;;
23232;SDS011;11785;49.500;8.288;2022-11-10T00:39:34;12.27;;;2.50;;
23232;SDS011;11785;49.500;8.288;2022-11-10T00:42:00;8.27;;;2.10;;
23232;SDS011;11785;49.500;8.288;2022-11-10T00:44:26;6.15;;;2.67;;
23232;SDS011;11785;49.500;8.288;2022-11-10T00:46:52;7.72;;;2.50;;
23232;SDS011;11785;49.500;8.288;2022-11-10T00:49:17;8.63;;;2.50;;
23232;SDS011;11785;49.500;8.288;2022-11-10T00:51:43;9.18;;;2.50;;
23232;SDS011;11785;49.500;8.288;2022-11-10T00:54:08;9.55;;;2.65;;
23232;SDS011;11785;49.500;8.288;2022-11-10T00:56:34;9.38;;;2.63;;
23232;SDS011;11785;49.500;8.288;2022-11-10T00:59:00;8.73;;;2.63;;
23232;SDS011;11785;49.500;8.288;2022-11-10T01:01:25;9.77;;;2.58;;
23232;SDS011;11785;49.500;8.288;2022-11-10T01:03:51;7.38;;;2.30;;
23232;SDS011;11785;49.500;8.288;2022-11-10T01:06:18;6.63;;;2.40;;
23232;SDS011;11785;49.500;8.288;2022-11-10T01:08:45;10.45;;;2.78;;
23232;SDS011;11785;49.500;8.288;2022-11-10T01:11:18;6.88;;;2.33;;
23232;SDS011;11785;49.500;8.288;2022-11-10T01:13:46;5.93;;;2.60;;
23232;SDS011;11785;49.500;8.288;2022-11-10T01:16:14;12.10;;;2.72;;
23232;SDS011;11785;49.500;8.288;2022-11-10T01:18:47;6.30;;;2.42;;
23232;SDS011;11785;49.500;8.288;2022-11-10T01:21:14;7.25;;;2.33;;
23232;SDS011;11785;49.500;8.288;2022-11-10T01:23:39;6.55;;;2.80;;
23232;SDS011;11785;49.500;8.288;2022-11-10T01:26:05;6.63;;;2.70;;
23232;SDS011;11785;49.500;8.288;2022-11-10T01:28:32;7.13;;;2.40;;
23232;SDS011;11785;49.500;8.288;2022-11-10T01:30:59;9.68;;;2.30;;
23232;SDS011;11785;49.500;8.288;2022-11-10T01:33:26;8.68;;;2.35;;
23232;SDS011;11785;49.500;8.288;2022-11-10T01:35:52;6.43;;;2.40;;
23232;SDS011;11785;49.500;8.288;2022-11-10T01:38:19;8.35;;;2.65;;
23232;SDS011;11785;49.500;8.288;2022-11-10T01:40:44;6.65;;;2.80;;
23232;SDS011;11785;49.500;8.288;2022-11-10T01:43:11;8.32;;;2.55;;
23232;SDS011;11785;49.500;8.288;2022-11-10T01:45:44;8.00;;;2.72;;
23232;SDS011;11785;49.500;8.288;2022-11-10T01:51:07;14.15;;;3.00;;
23232;SDS011;11785;49.500;8.288;2022-11-10T01:53:40;8.85;;;3.70;;
23232;SDS011;11785;49.500;8.288;2022-11-10T01:56:08;14.93;;;3.90;;
23232;SDS011;11785;49.500;8.288;2022-11-10T01:58:36;9.75;;;3.58;;
23232;SDS011;11785;49.500;8.288;2022-11-10T02:01:08;9.40;;;3.47;;
23232;SDS011;11785;49.500;8.288;2022-11-10T02:03:41;9.13;;;3.30;;
23232;SDS011;11785;49.500;8.288;2022-11-10T02:06:13;7.72;;;3.22;;
23232;SDS011;11785;49.500;8.288;2022-11-10T02:08:41;23.75;;;3.92;;
23232;SDS011;11785;49.500;8.288;2022-11-10T02:11:08;7.97;;;3.78;;
23232;SDS011;11785;49.500;8.288;2022-11-10T02:13:34;9.25;;;3.03;;
23232;SDS011;11785;49.500;8.288;2022-11-10T02:16:00;12.23;;;3.35;;
23232;SDS011;11785;49.500;8.288;2022-11-10T02:18:26;11.13;;;3.90;;
23232;SDS011;11785;49.500;8.288;2022-11-10T02:20:51;12.98;;;4.15;;
23232;SDS011;11785;49.500;8.288;2022-11-10T02:25:55;7.15;;;3.60;;
23232;SDS011;11785;49.500;8.288;2022-11-10T02:28:22;8.60;;;4.20;;
23232;SDS011;11785;49.500;8.288;2022-11-10T02:30:48;15.32;;;4.13;;
23232;SDS011;11785;49.500;8.288;2022-11-10T02:33:14;9.23;;;3.20;;
23232;SDS011;11785;49.500;8.288;2022-11-10T02:35:43;8.70;;;4.05;;
23232;SDS011;11785;49.500;8.288;2022-11-10T02:38:10;8.70;;;3.60;;
23232;SDS011;11785;49.500;8.288;2022-11-10T02:40:35;5.75;;;3.50;;
23232;SDS011;11785;49.500;8.288;2022-11-10T02:43:02;10.05;;;3.65;;
23232;SDS011;11785;49.500;8.288;2022-11-10T02:45:29;8.27;;;3.53;;
23232;SDS011;11785;49.500;8.288;2022-11-10T02:47:55;9.95;;;3.80;;
23232;SDS011;11785;49.500;8.288;2022-11-10T02:50:20;6.97;;;3.88;;
23232;SDS011;11785;49.500;8.288;2022-11-10T02:52:46;6.47;;;3.30;;
23232;SDS011;11785;49.500;8.288;2022-11-10T02:55:11;5.35;;;2.90;;
23232;SDS011;11785;49.500;8.288;2022-11-10T02:57:37;8.57;;;3.78;;
23232;SDS011;11785;49.500;8.288;2022-11-10T03:00:03;12.07;;;3.67;;
23232;SDS011;11785;49.500;8.288;2022-11-10T03:02:29;7.60;;;3.75;;
23232;SDS011;11785;49.500;8.288;2022-11-10T03:04:55;11.60;;;3.67;;
23232;SDS011;11785;49.500;8.288;2022-11-10T03:07:20;6.68;;;3.72;;
23232;SDS011;11785;49.500;8.288;2022-11-10T03:09:46;5.95;;;2.97;;
23232;SDS011;11785;49.500;8.288;2022-11-10T03:12:12;10.73;;;3.78;;
23232;SDS011;11785;49.500;8.288;2022-11-10T03:14:37;13.50;;;4.13;;
23232;SDS011;11785;49.500;8.288;2022-11-10T03:17:03;10.57;;;5.30;;
23232;SDS011;11785;49.500;8.288;2022-11-10T03:19:28;15.63;;;6.25;;
23232;SDS011;11785;49.500;8.288;2022-11-10T03:21:54;12.85;;;4.90;;
23232;SDS011;11785;49.500;8.288;2022-11-10T03:24:19;12.88;;;5.13;;
23232;SDS011;11785;49.500;8.288;2022-11-10T03:26:45;10.77;;;5.45;;
23232;SDS011;11785;49.500;8.288;2022-11-10T03:29:10;17.15;;;6.10;;
23232;SDS011;11785;49.500;8.288;2022-11-10T03:31:36;14.95;;;6.20;;
23232;SDS011;11785;49.500;8.288;2022-11-10T03:34:01;18.95;;;6.05;;
23232;SDS011;11785;49.500;8.288;2022-11-10T03:36:27;13.27;;;5.47;;
23232;SDS011;11785;49.500;8.288;2022-11-10T03:38:53;8.43;;;4.78;;
23232;SDS011;11785;49.500;8.288;2022-11-10T03:41:18;11.85;;;5.53;;
23232;SDS011;11785;49.500;8.288;2022-11-10T03:43:44;12.20;;;5.75;;
23232;SDS011;11785;49.500;8.288;2022-11-10T03:46:09;10.05;;;5.40;;
23232;SDS011;11785;49.500;8.288;2022-11-10T03:48:35;9.00;;;4.38;;
23232;SDS011;11785;49.500;8.288;2022-11-10T03:51:00;11.27;;;4.53;;
23232;SDS011;11785;49.500;8.288;2022-11-10T03:53:26;10.55;;;4.78;;
23232;SDS011;11785;49.500;8.288;2022-11-10T03:55:51;11.65;;;4.75;;
23232;SDS011;11785;49.500;8.288;2022-11-10T03:58:17;18.77;;;5.38;;
23232;SDS011;11785;49.500;8.288;2022-11-10T04:00:42;11.45;;;4.80;;
23232;SDS011;11785;49.500;8.288;2022-11-10T04:03:08;12.68;;;5.53;;
23232;SDS011;11785;49.500;8.288;2022-11-10T04:05:34;15.15;;;6.07;;
23232;SDS011;11785;49.500;8.288;2022-11-10T04:08:18;12.93;;;4.95;;
23232;SDS011;11785;49.500;8.288;2022-11-10T04:11:02;9.82;;;4.93;;
23232;SDS011;11785;49.500;8.288;2022-11-10T04:13:27;13.70;;;5.38;;
23232;SDS011;11785;49.500;8.288;2022-11-10T04:16:12;14.65;;;6.13;;
23232;SDS011;11785;49.500;8.288;2022-11-10T04:18:37;21.90;;;7.13;;
23232;SDS011;11785;49.500;8.288;2022-11-10T04:21:03;16.38;;;6.68;;
23232;SDS011;11785;49.500;8.288;2022-11-10T04:23:29;18.25;;;7.07;;
23232;SDS011;11785;49.500;8.288;2022-11-10T04:26:04;16.25;;;7.10;;
23232;SDS011;11785;49.500;8.288;2022-11-10T04:28:50;21.45;;;7.57;;
23232;SDS011;11785;49.500;8.288;2022-11-10T04:31:18;20.23;;;8.25;;
23232;SDS011;11785;49.500;8.288;2022-11-10T04:33:45;18.88;;;7.47;;
23232;SDS011;11785;49.500;8.288;2022-11-10T04:36:12;12.73;;;7.20;;
23232;SDS011;11785;49.500;8.288;2022-11-10T04:38:39;19.42;;;7.13;;
23232;SDS011;11785;49.500;8.288;2022-11-10T04:41:05;14.20;;;6.85;;
23232;SDS011;11785;49.500;8.288;2022-11-10T04:43:31;17.85;;;7.85;;
23232;SDS011;11785;49.500;8.288;2022-11-10T04:45:57;15.65;;;8.35;;
23232;SDS011;11785;49.500;8.288;2022-11-10T04:48:24;17.77;;;7.45;;
23232;SDS011;11785;49.500;8.288;2022-11-10T04:50:50;17.38;;;7.57;;
23232;SDS011;11785;49.500;8.288;2022-11-10T04:53:16;20.75;;;8.15;;
23232;SDS011;11785;49.500;8.288;2022-11-10T04:55:43;17.48;;;8.32;;
23232;SDS011;11785;49.500;8.288;2022-11-10T04:58:09;19.90;;;7.90;;
23232;SDS011;11785;49.500;8.288;2022-11-10T05:00:35;21.08;;;8.57;;
23232;SDS011;11785;49.500;8.288;2022-11-10T05:03:02;13.95;;;8.27;;
23232;SDS011;11785;49.500;8.288;2022-11-10T05:05:29;30.42;;;9.38;;
23232;SDS011;11785;49.500;8.288;2022-11-10T05:07:55;20.60;;;9.23;;
23232;SDS011;11785;49.500;8.288;2022-11-10T05:10:21;18.83;;;7.93;;
23232;SDS011;11785;49.500;8.288;2022-11-10T05:12:47;20.88;;;8.35;;
23232;SDS011;11785;49.500;8.288;2022-11-10T05:15:13;17.63;;;7.65;;
23232;SDS011;11785;49.500;8.288;2022-11-10T05:17:38;17.42;;;7.28;;
23232;SDS011;11785;49.500;8.288;2022-11-10T05:20:04;19.20;;;8.48;;
23232;SDS011;11785;49.500;8.288;2022-11-10T05:22:31;22.20;;;11.40;;
23232;SDS011;11785;49.500;8.288;2022-11-10T05:24:56;22.10;;;11.73;;
23232;SDS011;11785;49.500;8.288;2022-11-10T05:27:22;19.63;;;11.02;;
23232;SDS011;11785;49.500;8.288;2022-11-10T05:29:47;17.52;;;9.45;;
23232;SDS011;11785;49.500;8.288;2022-11-10T05:32:13;15.50;;;8.05;;
23232;SDS011;11785;49.500;8.288;2022-11-10T05:34:38;13.50;;;7.32;;
23232;SDS011;11785;49.500;8.288;2022-11-10T05:37:04;15.73;;;6.65;;
23232;SDS011;11785;49.500;8.288;2022-11-10T05:39:30;11.80;;;6.25;;
23232;SDS011;11785;49.500;8.288;2022-11-10T05:41:55;11.55;;;5.70;;
23232;SDS011;11785;49.500;8.288;2022-11-10T05:44:21;10.20;;;5.30;;
23232;SDS011;11785;49.500;8.288;2022-11-10T05:46:46;13.55;;;5.63;;
23232;SDS011;11785;49.500;8.288;2022-11-10T05:49:12;11.85;;;5.43;;
23232;SDS011;11785;49.500;8.288;2022-11-10T05:51:38;9.43;;;5.20;;
23232;SDS011;11785;49.500;8.288;2022-11-10T05:54:03;13.20;;;5.32;;
23232;SDS011;11785;49.500;8.288;2022-11-10T05:56:29;15.38;;;5.50;;
23232;SDS011;11785;49.500;8.288;2022-11-10T05:58:55;12.48;;;4.90;;
23232;SDS011;11785;49.500;8.288;2022-11-10T06:01:20;11.18;;;5.32;;
23232;SDS011;11785;49.500;8.288;2022-11-10T06:03:46;8.88;;;5.18;;
23232;SDS011;11785;49.500;8.288;2022-11-10T06:06:12;13.60;;;5.32;;
23232;SDS011;11785;49.500;8.288;2022-11-10T06:08:37;17.52;;;6.22;;
23232;SDS011;11785;49.500;8.288;2022-11-10T06:11:03;15.63;;;6.72;;
23232;SDS011;11785;49.500;8.288;2022-11-10T06:13:28;10.82;;;5.63;;
23232;SDS011;11785;49.500;8.288;2022-11-10T06:15:54;11.07;;;6.50;;
23232;SDS011;11785;49.500;8.288;2022-11-10T06:18:19;15.93;;;6.40;;
23232;SDS011;11785;49.500;8.288;2022-11-10T06:20:45;15.35;;;6.47;;
23232;SDS011;11785;49.500;8.288;2022-11-10T06:23:11;13.52;;;6.30;;
23232;SDS011;11785;49.500;8.288;2022-11-10T06:25:38;14.07;;;6.68;;
23232;SDS011;11785;49.500;8.288;2022-11-10T06:28:05;13.02;;;7.22;;
23232;SDS011;11785;49.500;8.288;2022-11-10T06:30:33;15.07;;;6.75;;
23232;SDS011;11785;49.500;8.288;2022-11-10T06:33:00;15.88;;;7.47;;
23232;SDS011;11785;49.500;8.288;2022-11-10T06:35:26;17.45;;;7.53;;
23232;SDS011;11785;49.500;8.288;2022-11-10T06:38:03;14.68;;;7.22;;
23232;SDS011;11785;49.500;8.288;2022-11-10T06:40:30;14.40;;;7.35;;
23232;SDS011;11785;49.500;8.288;2022-11-10T06:42:57;14.85;;;7.20;;
23232;SDS011;11785;49.500;8.288;2022-11-10T06:45:23;12.52;;;7.00;;
23232;SDS011;11785;49.500;8.288;2022-11-10T06:48:11;15.32;;;7.03;;
23232;SDS011;11785;49.500;8.288;2022-11-10T06:50:37;14.68;;;6.93;;
23232;SDS011;11785;49.500;8.288;2022-11-10T06:53:02;16.95;;;7.32;;
23232;SDS011;11785;49.500;8.288;2022-11-10T06:55:28;18.88;;;7.75;;
23232;SDS011;11785;49.500;8.288;2022-11-10T06:57:54;15.27;;;7.22;;
23232;SDS011;11785;49.500;8.288;2022-11-10T07:00:19;14.98;;;7.30;;
23232;SDS011;11785;49.500;8.288;2022-11-10T07:02:45;17.30;;;7.78;;
23232;SDS011;11785;49.500;8.288;2022-11-10T07:05:11;17.20;;;7.13;;
23232;SDS011;11785;49.500;8.288;2022-11-10T07:07:36;15.68;;;7.82;;
23232;SDS011;11785;49.500;8.288;2022-11-10T07:10:02;16.98;;;7.50;;
23232;SDS011;11785;49.500;8.288;2022-11-10T07:12:27;14.80;;;6.78;;
23232;SDS011;11785;49.500;8.288;2022-11-10T07:14:53;16.17;;;7.18;;
23232;SDS011;11785;49.500;8.288;2022-11-10T07:17:18;18.45;;;7.93;;
23232;SDS011;11785;49.500;8.288;2022-11-10T07:19:44;17.05;;;7.97;;
23232;SDS011;11785;49.500;8.288;2022-11-10T07:22:10;20.67;;;7.90;;
23232;SDS011;11785;49.500;8.288;2022-11-10T07:24:35;16.58;;;8.55;;
23232;SDS011;11785;49.500;8.288;2022-11-10T07:27:01;16.67;;;7.90;;
23232;SDS011;11785;49.500;8.288;2022-11-10T07:29:26;18.90;;;7.80;;
23232;SDS011;11785;49.500;8.288;2022-11-10T07:31:52;18.35;;;9.75;;
23232;SDS011;11785;49.500;8.288;2022-11-10T07:34:17;20.20;;;9.32;;
23232;SDS011;11785;49.500;8.288;2022-11-10T07:36:43;23.45;;;9.68;;
23232;SDS011;11785;49.500;8.288;2022-11-10T07:39:09;20.63;;;9.63;;
23232;SDS011;11785;49.500;8.288;2022-11-10T07:41:35;17.20;;;9.93;;
23232;SDS011;11785;49.500;8.288;2022-11-10T07:44:01;21.70;;;9.20;;
23232;SDS011;11785;49.500;8.288;2022-11-10T07:46:27;22.63;;;8.90;;
23232;SDS011;11785;49.500;8.288;2022-11-10T07:48:53;20.58;;;9.10;;
23232;SDS011;11785;49.500;8.288;2022-11-10T07:51:18;18.75;;;8.98;;
23232;SDS011;11785;49.500;8.288;2022-11-10T07:53:44;21.50;;;8.93;;
23232;SDS011;11785;49.500;8.288;2022-11-10T07:56:10;24.70;;;8.23;;
23232;SDS011;11785;49.500;8.288;2022-11-10T07:58:35;11.98;;;6.68;;
23232;SDS011;11785;49.500;8.288;2022-11-10T08:01:01;13.52;;;7.53;;
23232;SDS011;11785;49.500;8.288;2022-11-10T08:03:26;14.25;;;6.65;;
23232;SDS011;11785;49.500;8.288;2022-11-10T08:05:52;12.75;;;6.70;;
23232;SDS011;11785;49.500;8.288;2022-11-10T08:08:17;13.82;;;6.95;;
23232;SDS011;11785;49.500;8.288;2022-11-10T08:10:43;12.10;;;6.30;;
23232;SDS011;11785;49.500;8.288;2022-11-10T08:13:09;15.07;;;6.20;;
23232;SDS011;11785;49.500;8.288;2022-11-10T08:15:37;18.63;;;5.80;;
23232;SDS011;11785;49.500;8.288;2022-11-10T08:18:07;14.68;;;5.53;;
23232;SDS011;11785;49.500;8.288;2022-11-10T08:20:44;10.63;;;5.32;;
23232;SDS011;11785;49.500;8.288;2022-11-10T08:23:09;11.63;;;4.80;;
23232;SDS011;11785;49.500;8.288;2022-11-10T08:25:37;14.35;;;4.75;;
23232;SDS011;11785;49.500;8.288;2022-11-10T08:28:06;18.10;;;4.63;;
23232;SDS011;11785;49.500;8.288;2022-11-10T08:30:37;9.38;;;4.85;;
23232;SDS011;11785;49.500;8.288;2022-11-10T08:33:05;8.32;;;4.38;;
23232;SDS011;11785;49.500;8.288;2022-11-10T08:35:37;5.95;;;4.00;;
23232;SDS011;11785;49.500;8.288;2022-11-10T08:38:08;11.60;;;4.15;;
23232;SDS011;11785;49.500;8.288;2022-11-10T08:40:36;9.77;;;3.20;;
23232;SDS011;11785;49.500;8.288;2022-11-10T08:43:02;10.05;;;3.30;;
23232;SDS011;11785;49.500;8.288;2022-11-10T08:45:31;10.60;;;3.25;;
23232;SDS011;11785;49.500;8.288;2022-11-10T08:50:34;10.52;;;3.75;;
23232;SDS011;11785;49.500;8.288;2022-11-10T08:53:04;7.40;;;3.13;;
23232;SDS011;11785;49.500;8.288;2022-11-10T08:55:40;10.48;;;3.30;;
23232;SDS011;11785;49.500;8.288;2022-11-10T08:58:06;9.45;;;3.88;;
23232;SDS011;11785;49.500;8.288;2022-11-10T09:00:35;13.15;;;3.58;;
23232;SDS011;11785;49.500;8.288;2022-11-10T09:05:55;7.47;;;3.00;;
23232;SDS011;11785;49.500;8.288;2022-11-10T09:08:21;9.27;;;3.97;;
23232;SDS011;11785;49.500;8.288;2022-11-10T09:10:47;7.50;;;3.65;;
23232;SDS011;11785;49.500;8.288;2022-11-10T09:13:16;10.30;;;4.57;;
23232;SDS011;11785;49.500;8.288;2022-11-10T09:15:43;12.77;;;4.55;;
23232;SDS011;11785;49.500;8.288;2022-11-10T09:18:12;7.28;;;3.72;;
23232;SDS011;11785;49.500;8.288;2022-11-10T09:20:39;12.70;;;4.40;;
23232;SDS011;11785;49.500;8.288;2022-11-10T09:23:06;10.07;;;4.35;;
23232;SDS011;11785;49.500;8.288;2022-11-10T09:25:33;10.50;;;3.97;;
23232;SDS011;11785;49.500;8.288;2022-11-10T09:27:59;11.15;;;4.22;;
23232;SDS011;11785;49.500;8.288;2022-11-10T09:30:25;9.40;;;3.72;;
23232;SDS011;11785;49.500;8.288;2022-11-10T09:32:57;13.82;;;4.32;;
23232;SDS011;11785;49.500;8.288;2022-11-10T09:35:24;8.60;;;4.00;;
23232;SDS011;11785;49.500;8.288;2022-11-10T09:37:50;8.85;;;3.83;;
23232;SDS011;11785;49.500;8.288;2022-11-10T09:40:22;9.07;;;4.13;;
23232;SDS011;11785;49.500;8.288;2022-11-10T09:43:10;11.43;;;4.72;;
23232;SDS011;11785;49.500;8.288;2022-11-10T09:45:43;12.05;;;3.80;;
23232;SDS011;11785;49.500;8.288;2022-11-10T09:48:18;11.45;;;3.70;;
23232;SDS011;11785;49.500;8.288;2022-11-10T09:50:53;9.70;;;3.70;;
23232;SDS011;11785;49.500;8.288;2022-11-10T09:53:31;10.70;;;4.25;;
23232;SDS011;11785;49.500;8.288;2022-11-10T09:56:02;10.80;;;3.42;;
23232;SDS011;11785;49.500;8.288;2022-11-10T09:58:51;6.00;;;2.70;;
23232;SDS011;11785;49.500;8.288;2022-11-10T10:04:01;16.02;;;3.20;;
23232;SDS011;11785;49.500;8.288;2022-11-10T10:06:28;7.82;;;2.67;;
23232;SDS011;11785;49.500;8.288;2022-11-10T10:09:02;9.57;;;2.85;;
23232;SDS011;11785;49.500;8.288;2022-11-10T10:12:34;15.07;;;2.70;;
23232;SDS011;11785;49.500;8.288;2022-11-10T10:15:20;8.05;;;2.80;;
23232;SDS011;11785;49.500;8.288;2022-11-10T10:23:53;10.77;;;2.60;;
23232;SDS011;11785;49.500;8.288;2022-11-10T10:26:21;12.05;;;2.33;;
23232;SDS011;11785;49.500;8.288;2022-11-10T10:28:50;10.73;;;2.65;;
23232;SDS011;11785;49.500;8.288;2022-11-10T10:31:18;5.88;;;2.25;;
23232;SDS011;11785;49.500;8.288;2022-11-10T10:33:46;7.13;;;2.53;;
23232;SDS011;11785;49.500;8.288;2022-11-10T10:36:22;10.27;;;2.78;;
23232;SDS011;11785;49.500;8.288;2022-11-10T10:38:53;6.40;;;2.50;;
23232;SDS011;11785;49.500;8.288;2022-11-10T10:41:24;6.57;;;2.13;;
23232;SDS011;11785;49.500;8.288;2022-11-10T10:43:52;9.52;;;2.70;;
23232;SDS011;11785;49.500;8.288;2022-11-10T10:46:20;11.70;;;3.28;;
23232;SDS011;11785;49.500;8.288;2022-11-10T10:52:00;7.68;;;1.80;;
23232;SDS011;11785;49.500;8.288;2022-11-10T10:57:03;10.50;;;3.42;;
23232;SDS011;11785;49.500;8.288;2022-11-10T10:59:29;10.38;;;2.35;;
23232;SDS011;11785;49.500;8.288;2022-11-10T11:01:56;10.48;;;2.63;;
23232;SDS011;11785;49.500;8.288;2022-11-10T11:04:29;5.93;;;2.13;;
23232;SDS011;11785;49.500;8.288;2022-11-10T11:06:57;11.32;;;2.05;;
23232;SDS011;11785;49.500;8.288;2022-11-10T11:09:28;5.35;;;1.80;;
23232;SDS011;11785;49.500;8.288;2022-11-10T11:12:04;9.77;;;2.42;;
23232;SDS011;11785;49.500;8.288;2022-11-10T11:14:37;10.23;;;2.58;;
23232;SDS011;11785;49.500;8.288;2022-11-10T11:17:17;8.15;;;2.20;;
23232;SDS011;11785;49.500;8.288;2022-11-10T11:19:45;5.40;;;2.00;;
23232;SDS011;11785;49.500;8.288;2022-11-10T11:22:15;8.43;;;2.10;;
23232;SDS011;11785;49.500;8.288;2022-11-10T11:25:05;8.65;;;2.45;;
23232;SDS011;11785;49.500;8.288;2022-11-10T11:28:02;9.27;;;2.30;;
23232;SDS011;11785;49.500;8.288;2022-11-10T11:35:44;11.70;;;2.45;;
23232;SDS011;11785;49.500;8.288;2022-11-10T11:44:29;7.50;;;1.92;;
23232;SDS011;11785;49.500;8.288;2022-11-10T11:47:21;8.20;;;2.20;;
23232;SDS011;11785;49.500;8.288;2022-11-10T11:52:32;8.77;;;2.13;;
23232;SDS011;11785;49.500;8.288;2022-11-10T12:00:44;8.57;;;2.08;;
23232;SDS011;11785;49.500;8.288;2022-11-10T12:03:22;10.45;;;1.88;;
23232;SDS011;11785;49.500;8.288;2022-11-10T12:06:11;9.70;;;2.40;;
23232;SDS011;11785;49.500;8.288;2022-11-10T12:14:51;6.88;;;2.00;;
23232;SDS011;11785;49.500;8.288;2022-11-10T12:20:18;8.65;;;2.15;;
23232;SDS011;11785;49.500;8.288;2022-11-10T12:23:07;9.35;;;2.70;;
23232;SDS011;11785;49.500;8.288;2022-11-10T12:28:25;7.90;;;1.77;;
23232;SDS011;11785;49.500;8.288;2022-11-10T12:30:57;5.60;;;2.80;;
23232;SDS011;11785;49.500;8.288;2022-11-10T12:33:33;7.65;;;2.70;;
23232;SDS011;11785;49.500;8.288;2022-11-10T12:38:51;9.77;;;2.13;;
23232;SDS011;11785;49.500;8.288;2022-11-10T12:41:27;10.60;;;2.50;;
23232;SDS011;11785;49.500;8.288;2022-11-10T12:43:59;9.50;;;2.13;;
23232;SDS011;11785;49.500;8.288;2022-11-10T12:46:36;6.80;;;2.33;;
23232;SDS011;11785;49.500;8.288;2022-11-10T12:51:51;8.93;;;2.92;;
23232;SDS011;11785;49.500;8.288;2022-11-10T12:56:52;6.32;;;1.65;;
23232;SDS011;11785;49.500;8.288;2022-11-10T12:59:27;4.72;;;1.50;;
23232;SDS011;11785;49.500;8.288;2022-11-10T13:02:00;7.15;;;3.25;;
23232;SDS011;11785;49.500;8.288;2022-11-10T13:04:39;9.98;;;2.78;;
23232;SDS011;11785;49.500;8.288;2022-11-10T13:07:05;6.18;;;1.83;;
23232;SDS011;11785;49.500;8.288;2022-11-10T13:09:32;8.82;;;3.05;;
23232;SDS011;11785;49.500;8.288;2022-11-10T13:14:35;4.57;;;1.67;;
23232;SDS011;11785;49.500;8.288;2022-11-10T13:17:01;4.53;;;1.50;;
23232;SDS011;11785;49.500;8.288;2022-11-10T13:24:35;4.57;;;1.23;;
23232;SDS011;11785;49.500;8.288;2022-11-10T13:27:10;5.18;;;1.20;;
23232;SDS011;11785;49.500;8.288;2022-11-10T13:34:42;2.85;;;1.20;;
23232;SDS011;11785;49.500;8.288;2022-11-10T13:40:13;4.72;;;1.48;;
23232;SDS011;11785;49.500;8.288;2022-11-10T13:47:53;6.38;;;1.30;;
23232;SDS011;11785;49.500;8.288;2022-11-10T13:59:21;4.65;;;1.17;;
23232;SDS011;11785;49.500;8.288;2022-11-10T14:01:52;4.70;;;1.33;;
23232;SDS011;11785;49.500;8.288;2022-11-10T14:04:57;3.88;;;1.30;;
23232;SDS011;11785;49.500;8.288;2022-11-10T14:07:22;3.88;;;1.13;;
23232;SDS011;11785;49.500;8.288;2022-11-10T14:09:49;6.22;;;1.15;;
23232;SDS011;11785;49.500;8.288;2022-11-10T14:15:22;2.97;;;1.05;;
23232;SDS011;11785;49.500;8.288;2022-11-10T14:17:54;4.32;;;0.93;;
23232;SDS011;11785;49.500;8.288;2022-11-10T14:22:51;2.55;;;1.00;;
23232;SDS011;11785;49.500;8.288;2022-11-10T14:25:34;2.65;;;0.75;;
23232;SDS011;11785;49.500;8.288;2022-11-10T14:31:09;4.70;;;1.23;;
23232;SDS011;11785;49.500;8.288;2022-11-10T14:33:54;10.90;;;1.45;;
23232;SDS011;11785;49.500;8.288;2022-11-10T14:36:21;3.08;;;0.90;;
23232;SDS011;11785;49.500;8.288;2022-11-10T14:38:47;3.38;;;1.15;;
23232;SDS011;11785;49.500;8.288;2022-11-10T14:41:16;5.70;;;1.05;;
23232;SDS011;11785;49.500;8.288;2022-11-10T14:43:43;5.70;;;1.10;;
23232;SDS011;11785;49.500;8.288;2022-11-10T14:46:26;7.65;;;1.20;;
23232;SDS011;11785;49.500;8.288;2022-11-10T14:48:55;5.20;;;1.20;;
23232;SDS011;11785;49.500;8.288;2022-11-10T14:51:22;7.78;;;1.13;;
23232;SDS011;11785;49.500;8.288;2022-11-10T14:53:49;4.30;;;1.00;;
23232;SDS011;11785;49.500;8.288;2022-11-10T14:56:22;5.53;;;1.17;;
23232;SDS011;11785;49.500;8.288;2022-11-10T14:58:52;6.03;;;1.30;;
23232;SDS011;11785;49.500;8.288;2022-11-10T15:03:52;3.95;;;1.40;;
23232;SDS011;11785;49.500;8.288;2022-11-10T15:06:18;5.25;;;1.13;;
23232;SDS011;11785;49.500;8.288;2022-11-10T15:08:45;7.15;;;1.60;;
23232;SDS011;11785;49.500;8.288;2022-11-10T15:13:58;5.93;;;1.42;;
23232;SDS011;11785;49.500;8.288;2022-11-10T15:16:33;4.88;;;1.30;;
23232;SDS011;11785;49.500;8.288;2022-11-10T15:19:18;2.03;;;1.10;;
23232;SDS011;11785;49.500;8.288;2022-11-10T15:21:50;3.60;;;1.50;;
23232;SDS011;11785;49.500;8.288;2022-11-10T15:24:16;4.57;;;1.50;;
23232;SDS011;11785;49.500;8.288;2022-11-10T15:26:42;9.45;;;1.30;;
23232;SDS011;11785;49.500;8.288;2022-11-10T15:29:17;8.07;;;1.58;;
23232;SDS011;11785;49.500;8.288;2022-11-10T15:31:44;11.50;;;2.35;;
23232;SDS011;11785;49.500;8.288;2022-11-10T15:34:26;25.73;;;6.38;;
23232;SDS011;11785;49.500;8.288;2022-11-10T15:37:19;14.68;;;4.75;;
23232;SDS011;11785;49.500;8.288;2022-11-10T15:39:47;8.55;;;2.40;;
23232;SDS011;11785;49.500;8.288;2022-11-10T15:42:17;7.10;;;1.55;;
23232;SDS011;11785;49.500;8.288;2022-11-10T15:44:48;6.10;;;2.10;;
23232;SDS011;11785;49.500;8.288;2022-11-10T15:47:14;11.88;;;5.75;;
23232;SDS011;11785;49.500;8.288;2022-11-10T15:49:43;13.18;;;4.63;;
23232;SDS011;11785;49.500;8.288;2022-11-10T15:52:16;7.95;;;3.80;;
23232;SDS011;11785;49.500;8.288;2022-11-10T15:54:44;16.80;;;6.88;;
23232;SDS011;11785;49.500;8.288;2022-11-10T15:57:11;15.93;;;5.88;;
23232;SDS011;11785;49.500;8.288;2022-11-10T15:59:41;21.55;;;6.97;;
23232;SDS011;11785;49.500;8.288;2022-11-10T16:02:28;16.40;;;3.42;;
23232;SDS011;11785;49.500;8.288;2022-11-10T16:04:54;11.45;;;2.78;;
23232;SDS011;11785;49.500;8.288;2022-11-10T16:07:19;14.80;;;2.58;;
23232;SDS011;11785;49.500;8.288;2022-11-10T16:09:45;8.60;;;3.67;;
23232;SDS011;11785;49.500;8.288;2022-11-10T16:12:16;10.98;;;2.65;;
23232;SDS011;11785;49.500;8.288;2022-11-10T16:14:47;16.70;;;2.45;;
23232;SDS011;11785;49.500;8.288;2022-11-10T16:17:15;10.93;;;2.85;;
23232;SDS011;11785;49.500;8.288;2022-11-10T16:19:41;12.50;;;1.88;;
23232;SDS011;11785;49.500;8.288;2022-11-10T16:22:10;16.85;;;1.92;;
23232;SDS011;11785;49.500;8.288;2022-11-10T16:24:36;18.20;;;2.10;;
23232;SDS011;11785;49.500;8.288;2022-11-10T16:27:05;11.02;;;2.38;;
23232;SDS011;11785;49.500;8.288;2022-11-10T16:29:34;11.75;;;1.88;;
23232;SDS011;11785;49.500;8.288;2022-11-10T16:32:00;13.98;;;2.83;;
23232;SDS011;11785;49.500;8.288;2022-11-10T16:34:26;14.93;;;1.90;;
23232;SDS011;11785;49.500;8.288;2022-11-10T16:36:55;13.02;;;1.60;;
23232;SDS011;11785;49.500;8.288;2022-11-10T16:39:20;14.68;;;2.00;;